createdAt,value
2019-02-09T00:00:30.162Z,6.60
2019-02-09T00:03:01.879Z,5.50
2019-02-09T00:05:33.398Z,5.93
2019-02-09T00:08:06.247Z,6.20
2019-02-09T00:10:37.716Z,6.07
2019-02-09T00:13:09.299Z,6.37
2019-02-09T00:15:40.914Z,5.43
2019-02-09T00:18:12.340Z,9.00
2019-02-09T00:20:43.832Z,7.27
2019-02-09T00:23:15.314Z,6.90
2019-02-09T00:25:46.862Z,5.57
2019-02-09T00:28:18.332Z,5.10
2019-02-09T00:30:49.826Z,5.57
2019-02-09T00:33:21.266Z,6.30
2019-02-09T00:35:52.717Z,6.33
2019-02-09T00:38:24.148Z,4.90
2019-02-09T00:40:55.632Z,4.50
2019-02-09T00:43:27.074Z,4.57
2019-02-09T00:45:58.540Z,7.43
2019-02-09T00:48:29.975Z,7.57
2019-02-09T00:51:01.478Z,8.27
2019-02-09T00:53:32.916Z,7.00
2019-02-09T00:56:04.472Z,6.27
2019-02-09T00:58:36.013Z,5.23
2019-02-09T01:01:07.540Z,6.33
2019-02-09T01:03:39.003Z,5.83
2019-02-09T01:06:10.452Z,5.60
2019-02-09T01:08:41.889Z,6.40
2019-02-09T01:11:13.441Z,5.50
2019-02-09T01:13:44.882Z,5.30
2019-02-09T01:16:16.333Z,5.10
2019-02-09T01:18:47.767Z,5.20
2019-02-09T01:21:19.217Z,5.40
2019-02-09T01:23:50.654Z,5.07
2019-02-09T01:26:22.068Z,4.27
2019-02-09T01:28:53.491Z,4.77
2019-02-09T01:31:24.966Z,3.40
2019-02-09T01:33:56.392Z,3.13
2019-02-09T01:36:27.886Z,3.53
2019-02-09T01:38:59.290Z,3.87
2019-02-09T01:41:30.762Z,3.97
2019-02-09T01:44:02.208Z,3.60
2019-02-09T01:46:33.730Z,3.93
2019-02-09T01:49:05.180Z,3.90
2019-02-09T01:51:36.660Z,3.43
2019-02-09T01:54:08.101Z,5.07
2019-02-09T01:56:39.574Z,5.90
2019-02-09T01:59:10.952Z,6.40
2019-02-09T02:01:42.510Z,5.47
2019-02-09T02:04:13.902Z,4.17
2019-02-09T02:06:45.375Z,3.63
2019-02-09T02:09:16.741Z,3.53
2019-02-09T02:11:48.208Z,3.13
2019-02-09T02:14:19.624Z,3.37
2019-02-09T02:16:51.070Z,3.97
2019-02-09T02:19:22.549Z,3.70
2019-02-09T02:21:53.974Z,3.17
2019-02-09T02:24:25.396Z,3.30
2019-02-09T02:26:56.850Z,2.63
2019-02-09T02:29:28.278Z,3.53
2019-02-09T02:31:59.736Z,3.20
2019-02-09T02:34:31.197Z,2.67
2019-02-09T02:37:02.541Z,3.00
2019-02-09T02:39:34.034Z,3.30
2019-02-09T02:42:05.622Z,3.17
2019-02-09T02:44:37.027Z,3.10
2019-02-09T02:47:08.645Z,3.10
2019-02-09T02:49:40.066Z,2.80
2019-02-09T02:52:11.547Z,3.00
2019-02-09T02:54:43.010Z,3.17
2019-02-09T02:57:15.688Z,2.60
2019-02-09T02:59:48.995Z,2.87
2019-02-09T03:02:20.412Z,3.10
2019-02-09T03:04:51.901Z,2.80
2019-02-09T03:07:23.403Z,3.73
2019-02-09T03:09:54.881Z,2.40
2019-02-09T03:12:26.314Z,2.57
2019-02-09T03:14:57.820Z,2.80
2019-02-09T03:17:29.255Z,2.73
2019-02-09T03:20:00.703Z,2.47
2019-02-09T03:22:32.206Z,2.53
2019-02-09T03:25:03.683Z,2.97
2019-02-09T03:27:35.163Z,3.03
2019-02-09T03:30:09.208Z,2.53
2019-02-09T03:32:40.783Z,3.00
2019-02-09T03:35:12.736Z,3.13
2019-02-09T03:37:44.411Z,3.00
2019-02-09T03:40:18.692Z,3.20
2019-02-09T03:42:50.247Z,2.70
2019-02-09T03:45:28.392Z,2.83
2019-02-09T03:48:00.130Z,2.40
2019-02-09T03:50:32.528Z,3.00
2019-02-09T03:53:04.441Z,2.87
2019-02-09T03:55:35.903Z,2.60
2019-02-09T03:58:07.517Z,3.10
2019-02-09T04:00:38.975Z,2.70
2019-02-09T04:03:11.503Z,3.10
2019-02-09T04:05:43.076Z,2.90
2019-02-09T04:08:16.491Z,2.47
2019-02-09T04:10:47.960Z,2.87
2019-02-09T04:13:19.425Z,2.50
2019-02-09T04:15:50.858Z,2.53
2019-02-09T04:18:22.355Z,2.40
2019-02-09T04:20:53.917Z,2.20
2019-02-09T04:23:25.482Z,2.77
2019-02-09T04:26:00.255Z,2.57
2019-02-09T04:28:32.581Z,2.90
2019-02-09T04:31:06.538Z,2.80
2019-02-09T04:33:37.265Z,2.53
2019-02-09T04:36:08.672Z,2.30
2019-02-09T04:38:40.066Z,2.53
2019-02-09T04:41:12.501Z,1.63
2019-02-09T04:43:43.933Z,1.30
2019-02-09T04:46:15.354Z,1.27
2019-02-09T04:48:46.805Z,1.20
2019-02-09T04:51:18.253Z,1.37
2019-02-09T04:53:49.677Z,1.10
2019-02-09T04:56:21.039Z,1.40
2019-02-09T04:58:53.441Z,1.23
2019-02-09T05:01:24.897Z,1.30
2019-02-09T05:03:56.338Z,1.10
2019-02-09T05:06:27.778Z,1.00
2019-02-09T05:08:59.218Z,1.10
2019-02-09T05:11:30.649Z,1.10
2019-02-09T05:14:02.123Z,1.10
2019-02-09T05:16:33.548Z,1.40
2019-02-09T05:19:04.989Z,1.00
2019-02-09T05:21:36.315Z,1.17
2019-02-09T05:24:07.829Z,1.33
2019-02-09T05:26:39.185Z,1.33
2019-02-09T05:29:10.644Z,1.10
2019-02-09T05:31:41.966Z,1.40
2019-02-09T05:34:13.464Z,1.60
2019-02-09T05:36:44.897Z,1.33
2019-02-09T05:39:16.328Z,1.40
2019-02-09T05:41:47.866Z,1.37
2019-02-09T05:44:19.337Z,1.17
2019-02-09T05:46:50.764Z,1.10
2019-02-09T05:49:22.234Z,1.40
2019-02-09T05:51:53.676Z,1.40
2019-02-09T05:54:25.168Z,1.37
2019-02-09T05:56:56.616Z,1.10
2019-02-09T05:59:28.048Z,1.80
2019-02-09T06:01:59.503Z,1.27
2019-02-09T06:04:30.945Z,1.57
2019-02-09T06:07:02.358Z,1.37
2019-02-09T06:09:33.824Z,1.17
2019-02-09T06:12:05.357Z,1.40
2019-02-09T06:14:38.900Z,1.10
2019-02-09T06:17:10.335Z,1.00
2019-02-09T06:19:41.798Z,1.30
2019-02-09T06:22:13.259Z,0.80
2019-02-09T06:24:44.715Z,0.97
2019-02-09T06:27:16.158Z,0.70
2019-02-09T06:29:47.603Z,0.80
2019-02-09T06:32:19.046Z,0.80
2019-02-09T06:34:50.552Z,1.07
2019-02-09T06:37:21.988Z,0.97
2019-02-09T06:39:53.547Z,1.10
2019-02-09T06:42:25.002Z,1.03
2019-02-09T06:44:56.468Z,1.00
2019-02-09T06:47:27.925Z,1.00
2019-02-09T06:49:59.409Z,1.20
2019-02-09T06:52:32.309Z,1.10
2019-02-09T06:55:04.096Z,1.00
2019-02-09T06:57:35.531Z,0.90
2019-02-09T07:00:10.078Z,1.10
2019-02-09T07:02:41.499Z,0.90
2019-02-09T07:05:20.450Z,0.90
2019-02-09T07:07:51.911Z,1.30
2019-02-09T07:10:24.614Z,0.83
2019-02-09T07:12:55.986Z,0.70
2019-02-09T07:15:29.026Z,0.80
2019-02-09T07:18:00.452Z,0.80
2019-02-09T07:20:31.869Z,0.80
2019-02-09T07:23:15.290Z,0.90
2019-02-09T07:25:46.757Z,0.80
2019-02-09T07:28:18.186Z,0.80
2019-02-09T07:30:49.558Z,0.83
2019-02-09T07:33:21.080Z,0.90
2019-02-09T07:35:52.694Z,0.80
2019-02-09T07:38:24.095Z,0.90
2019-02-09T07:40:55.550Z,0.80
2019-02-09T07:43:26.940Z,0.93
2019-02-09T07:45:58.452Z,0.80
2019-02-09T07:48:29.916Z,0.90
2019-02-09T07:51:01.285Z,0.90
2019-02-09T07:53:32.714Z,1.00
2019-02-09T07:56:04.206Z,1.00
2019-02-09T07:58:35.698Z,1.10
2019-02-09T08:01:07.275Z,1.00
2019-02-09T08:03:38.643Z,1.00
2019-02-09T08:06:10.400Z,0.87
2019-02-09T08:08:41.838Z,0.90
2019-02-09T08:11:14.859Z,1.10
2019-02-09T08:13:46.338Z,1.00
2019-02-09T08:16:17.782Z,1.00
2019-02-09T08:18:49.220Z,0.93
2019-02-09T08:21:20.689Z,1.20
2019-02-09T08:23:52.233Z,0.90
2019-02-09T08:26:23.928Z,0.70
2019-02-09T08:28:55.361Z,1.00
2019-02-09T08:31:27.916Z,1.20
2019-02-09T08:33:59.354Z,1.00
2019-02-09T08:36:30.840Z,1.10
2019-02-09T08:39:02.282Z,1.20
2019-02-09T08:41:35.362Z,0.90
2019-02-09T08:44:06.811Z,1.30
2019-02-09T08:46:38.260Z,1.20
2019-02-09T08:49:09.691Z,1.00
2019-02-09T08:51:41.262Z,0.90
2019-02-09T08:54:12.716Z,1.10
2019-02-09T08:56:45.219Z,1.20
2019-02-09T08:59:16.646Z,1.10
2019-02-09T09:01:48.072Z,0.97
2019-02-09T09:04:19.580Z,1.10
2019-02-09T09:06:51.048Z,1.10
2019-02-09T09:09:22.515Z,1.00
2019-02-09T09:11:54.186Z,0.97
2019-02-09T09:14:25.603Z,1.10
2019-02-09T09:16:57.106Z,1.30
2019-02-09T09:19:28.579Z,0.90
2019-02-09T09:21:59.949Z,0.90
2019-02-09T09:24:31.452Z,0.97
2019-02-09T09:27:02.965Z,1.07
2019-02-09T09:29:34.400Z,0.90
2019-02-09T09:32:06.054Z,1.93
2019-02-09T09:34:37.474Z,1.13
2019-02-09T09:37:08.948Z,1.00
2019-02-09T09:39:40.387Z,1.50
2019-02-09T09:42:11.851Z,1.07
2019-02-09T09:44:43.336Z,1.17
2019-02-09T09:47:14.842Z,1.37
2019-02-09T09:49:46.436Z,0.90
2019-02-09T09:52:19.574Z,1.30
2019-02-09T09:54:51.022Z,0.83
2019-02-09T09:57:22.511Z,0.90
2019-02-09T09:59:53.971Z,1.17
2019-02-09T10:02:25.474Z,2.90
2019-02-09T10:04:56.904Z,1.20
2019-02-09T10:07:28.401Z,1.00
2019-02-09T10:09:59.847Z,1.00
2019-02-09T10:12:32.809Z,1.20
2019-02-09T10:15:04.615Z,1.20
2019-02-09T10:17:36.091Z,1.63
2019-02-09T10:20:10.727Z,1.00
2019-02-09T10:22:42.234Z,1.30
2019-02-09T10:25:14.723Z,1.30
2019-02-09T10:27:46.260Z,1.60
2019-02-09T10:30:20.869Z,1.00
2019-02-09T10:32:52.526Z,1.73
2019-02-09T10:35:24.471Z,1.53
2019-02-09T10:37:57.083Z,1.00
2019-02-09T10:40:31.117Z,1.50
2019-02-09T10:43:03.578Z,1.10
2019-02-09T10:45:37.487Z,1.20
2019-02-09T10:48:09.623Z,1.20
2019-02-09T10:50:46.745Z,0.93
2019-02-09T10:53:19.627Z,1.00
2019-02-09T10:55:51.076Z,1.10
2019-02-09T10:58:22.559Z,1.10
2019-02-09T11:01:17.914Z,1.13
2019-02-09T11:03:49.482Z,1.00
2019-02-09T11:06:20.963Z,1.43
2019-02-09T11:08:52.411Z,1.20
2019-02-09T11:11:23.850Z,1.33
2019-02-09T11:13:55.421Z,1.23
2019-02-09T11:16:26.861Z,1.43
2019-02-09T11:18:58.312Z,1.40
2019-02-09T11:21:29.881Z,1.17
2019-02-09T11:24:01.401Z,1.00
2019-02-09T11:26:33.036Z,1.10
2019-02-09T11:29:04.471Z,1.40
2019-02-09T11:31:35.916Z,0.90
2019-02-09T11:34:08.007Z,1.30
2019-02-09T11:36:39.472Z,1.27
2019-02-09T11:39:11.027Z,1.00
2019-02-09T11:41:45.305Z,1.10
2019-02-09T11:44:16.813Z,6.20
2019-02-09T11:46:50.299Z,1.40
2019-02-09T11:49:21.752Z,0.90
2019-02-09T11:51:53.170Z,1.10
2019-02-09T11:54:24.632Z,1.20
2019-02-09T11:56:56.168Z,1.50
2019-02-09T11:59:27.669Z,1.97
2019-02-09T12:01:59.156Z,1.20
2019-02-09T12:04:30.602Z,1.33
2019-02-09T12:07:02.136Z,1.50
2019-02-09T12:09:33.573Z,1.47
2019-02-09T12:12:05.431Z,1.30
2019-02-09T12:14:37.484Z,1.10
2019-02-09T12:17:08.949Z,1.40
2019-02-09T12:19:43.225Z,1.20
2019-02-09T12:22:14.695Z,1.77
2019-02-09T12:24:46.158Z,1.30
2019-02-09T12:27:17.579Z,1.90
2019-02-09T12:29:50.142Z,1.00
2019-02-09T12:32:21.580Z,1.10
2019-02-09T12:34:53.078Z,1.23
2019-02-09T12:37:24.517Z,1.40
2019-02-09T12:39:55.978Z,1.37
2019-02-09T12:42:27.438Z,1.70
2019-02-09T12:44:58.925Z,1.20
2019-02-09T12:47:30.370Z,1.40
2019-02-09T12:50:01.928Z,1.53
2019-02-09T12:52:33.453Z,1.20
2019-02-09T12:55:05.458Z,1.40
2019-02-09T12:57:42.007Z,1.53
2019-02-09T13:00:28.983Z,1.50
2019-02-09T13:03:03.535Z,1.30
2019-02-09T13:05:34.981Z,1.53
2019-02-09T13:08:06.434Z,1.30
2019-02-09T13:10:37.959Z,1.50
2019-02-09T13:13:11.827Z,1.70
2019-02-09T13:15:43.335Z,1.83
2019-02-09T13:18:14.895Z,1.47
2019-02-09T13:20:46.389Z,1.60
2019-02-09T13:23:17.831Z,1.50
2019-02-09T13:25:49.309Z,1.70
2019-02-09T13:28:20.757Z,1.63
2019-02-09T13:30:53.443Z,1.73
2019-02-09T13:33:24.862Z,1.63
2019-02-09T13:35:56.358Z,1.37
2019-02-09T13:38:27.808Z,1.83
2019-02-09T13:40:59.276Z,1.63
2019-02-09T13:43:30.764Z,1.40
2019-02-09T13:46:03.292Z,1.80
2019-02-09T13:48:34.761Z,1.30
2019-02-09T13:51:06.230Z,1.27
2019-02-09T13:53:39.332Z,1.63
2019-02-09T13:56:10.800Z,1.43
2019-02-09T13:58:42.319Z,1.50
2019-02-09T14:01:13.804Z,1.20
2019-02-09T14:03:48.563Z,1.40
2019-02-09T14:06:20.034Z,1.50
2019-02-09T14:08:51.554Z,1.43
2019-02-09T14:11:23.913Z,1.23
2019-02-09T14:13:58.547Z,1.50
2019-02-09T14:16:30.046Z,1.50
2019-02-09T14:19:01.852Z,1.17
2019-02-09T14:21:33.320Z,1.60
2019-02-09T14:24:05.293Z,1.50
2019-02-09T14:26:42.145Z,0.90
2019-02-09T14:29:15.950Z,1.50
2019-02-09T14:31:47.422Z,1.67
2019-02-09T14:34:18.909Z,1.57
2019-02-09T14:36:50.344Z,2.00
2019-02-09T14:39:21.794Z,1.30
2019-02-09T14:41:55.991Z,1.40
2019-02-09T14:44:27.433Z,1.40
2019-02-09T14:46:58.961Z,2.00
2019-02-09T14:49:31.003Z,1.27
2019-02-09T14:52:04.909Z,1.30
2019-02-09T14:54:39.336Z,1.20
2019-02-09T14:57:10.895Z,1.30
2019-02-09T14:59:42.322Z,1.43
2019-02-09T15:02:15.344Z,1.27
2019-02-09T15:04:49.604Z,1.50
2019-02-09T15:07:20.982Z,1.27
2019-02-09T15:09:52.404Z,1.30
2019-02-09T15:12:23.937Z,1.30
2019-02-09T15:14:55.410Z,1.53
2019-02-09T15:17:26.878Z,1.57
2019-02-09T15:19:58.235Z,1.27
2019-02-09T15:22:31.946Z,1.63
2019-02-09T15:25:03.440Z,1.23
2019-02-09T15:27:34.920Z,1.57
2019-02-09T15:30:09.198Z,1.27
2019-02-09T15:32:40.705Z,1.40
2019-02-09T15:35:14.149Z,0.97
2019-02-09T15:37:45.672Z,1.20
2019-02-09T15:40:18.999Z,1.60
2019-02-09T15:42:50.454Z,1.37
2019-02-09T15:45:22.116Z,1.30
2019-02-09T15:47:53.628Z,1.20
2019-02-09T15:50:25.083Z,1.50
2019-02-09T15:52:57.711Z,1.77
2019-02-09T15:55:29.067Z,1.97
2019-02-09T15:58:00.641Z,1.60
2019-02-09T16:00:32.104Z,1.20
2019-02-09T16:03:03.746Z,1.40
2019-02-09T16:05:35.180Z,1.53
2019-02-09T16:08:09.103Z,1.10
2019-02-09T16:10:40.505Z,1.13
2019-02-09T16:13:12.004Z,1.20
2019-02-09T16:15:43.591Z,1.10
2019-02-09T16:18:15.008Z,1.13
2019-02-09T16:20:46.456Z,1.80
2019-02-09T16:23:17.926Z,1.00
2019-02-09T16:25:49.383Z,1.20
2019-02-09T16:28:21.932Z,1.60
2019-02-09T16:30:53.361Z,1.23
2019-02-09T16:33:24.822Z,1.53
2019-02-09T16:35:56.290Z,1.70
2019-02-09T16:38:27.804Z,2.23
2019-02-09T16:40:59.250Z,1.00
2019-02-09T16:43:30.741Z,1.23
2019-02-09T16:46:02.187Z,1.00
2019-02-09T16:48:33.651Z,1.17
2019-02-09T16:51:05.255Z,1.17
2019-02-09T16:53:36.701Z,1.30
2019-02-09T16:56:08.255Z,1.07
2019-02-09T16:58:39.732Z,1.17
2019-02-09T17:01:11.174Z,1.40
2019-02-09T17:03:42.616Z,2.00
2019-02-09T17:06:14.343Z,1.37
2019-02-09T17:08:45.798Z,1.10
2019-02-09T17:11:17.211Z,1.23
2019-02-09T17:13:48.673Z,1.30
2019-02-09T17:16:20.087Z,1.53
2019-02-09T17:18:51.566Z,1.30
2019-02-09T17:21:23.026Z,1.27
2019-02-09T17:23:54.515Z,1.03
2019-02-09T17:26:25.914Z,1.57
2019-02-09T17:28:57.367Z,1.20
2019-02-09T17:31:28.790Z,1.37
2019-02-09T17:34:00.232Z,1.50
2019-02-09T17:36:31.652Z,1.17
2019-02-09T17:39:03.928Z,1.50
2019-02-09T17:41:37.000Z,1.10
2019-02-09T17:44:08.726Z,1.17
2019-02-09T17:46:40.293Z,1.37
2019-02-09T17:49:11.771Z,1.93
2019-02-09T17:51:43.200Z,1.40
2019-02-09T17:54:14.661Z,1.70
2019-02-09T17:56:46.099Z,1.23
2019-02-09T17:59:17.567Z,1.30
2019-02-09T18:01:49.017Z,1.60
2019-02-09T18:04:20.506Z,1.00
2019-02-09T18:06:52.050Z,0.90
2019-02-09T18:09:23.511Z,1.17
2019-02-09T18:11:54.935Z,1.90
2019-02-09T18:14:26.402Z,1.60
2019-02-09T18:16:57.821Z,2.07
2019-02-09T18:19:29.282Z,1.60
2019-02-09T18:22:00.711Z,1.27
2019-02-09T18:24:32.181Z,1.70
2019-02-09T18:27:03.605Z,1.13
2019-02-09T18:29:34.972Z,0.93
2019-02-09T18:32:06.579Z,1.30
2019-02-09T18:34:38.056Z,1.10
2019-02-09T18:37:09.504Z,1.27
2019-02-09T18:39:40.921Z,1.00
2019-02-09T18:42:12.425Z,1.23
2019-02-09T18:44:43.875Z,0.87
2019-02-09T18:47:15.309Z,1.17
2019-02-09T18:49:46.813Z,1.33
2019-02-09T18:52:19.856Z,0.97
2019-02-09T18:54:51.333Z,0.97
2019-02-09T18:57:22.871Z,0.90
2019-02-09T18:59:54.394Z,1.40
2019-02-09T19:02:25.947Z,0.90
2019-02-09T19:05:04.191Z,1.20
2019-02-09T19:07:30.514Z,1.50
2019-02-09T19:10:02.011Z,1.40
2019-02-09T19:12:33.765Z,1.20
2019-02-09T19:15:07.204Z,1.00
2019-02-09T19:17:38.698Z,1.50
2019-02-09T19:20:16.147Z,0.90
2019-02-09T19:22:47.679Z,1.30
2019-02-09T19:25:20.069Z,1.23
2019-02-09T19:27:51.537Z,1.37
2019-02-09T19:30:23.435Z,1.30
2019-02-09T19:32:55.104Z,1.20
2019-02-09T19:35:26.563Z,0.80
2019-02-09T19:37:57.989Z,1.00
2019-02-09T19:40:29.469Z,1.30
2019-02-09T19:43:00.935Z,1.00
2019-02-09T19:45:33.640Z,1.53
2019-02-09T19:48:08.705Z,1.20
2019-02-09T19:50:40.150Z,1.10
2019-02-09T19:53:11.577Z,1.00
2019-02-09T19:55:43.083Z,0.90
2019-02-09T19:58:14.523Z,1.00
2019-02-09T20:00:46.521Z,1.10
2019-02-09T20:03:17.969Z,1.00
2019-02-09T20:05:49.434Z,0.70
2019-02-09T20:08:20.853Z,0.90
2019-02-09T20:10:52.335Z,1.00
2019-02-09T20:13:23.771Z,1.63
2019-02-09T20:15:55.301Z,0.80
2019-02-09T20:18:26.729Z,1.00
2019-02-09T20:20:58.174Z,1.47
2019-02-09T20:23:29.572Z,1.27
2019-02-09T20:26:01.046Z,1.17
2019-02-09T20:28:32.599Z,2.83
2019-02-09T20:31:04.112Z,3.33
2019-02-09T20:33:35.599Z,3.60
2019-02-09T20:36:08.729Z,2.13
2019-02-09T20:38:40.363Z,2.30
2019-02-09T20:41:12.249Z,1.90
2019-02-09T20:43:43.797Z,1.50
2019-02-09T20:46:15.382Z,1.10
2019-02-09T20:48:46.834Z,1.30
2019-02-09T20:51:18.284Z,1.10
2019-02-09T20:53:49.723Z,1.10
2019-02-09T20:56:22.944Z,1.03
2019-02-09T20:58:54.458Z,1.00
2019-02-09T21:01:25.852Z,1.03
2019-02-09T21:03:57.296Z,1.17
2019-02-09T21:06:28.793Z,1.10
2019-02-09T21:09:00.279Z,1.07
2019-02-09T21:11:32.661Z,2.00
2019-02-09T21:14:04.094Z,1.40
2019-02-09T21:16:35.560Z,1.20
2019-02-09T21:19:06.908Z,1.30
2019-02-09T21:21:38.389Z,1.10
2019-02-09T21:24:09.830Z,1.40
2019-02-09T21:26:41.303Z,1.00
2019-02-09T21:29:12.736Z,1.20
2019-02-09T21:31:44.194Z,1.00
2019-02-09T21:34:15.616Z,1.07
2019-02-09T21:36:47.070Z,1.30
2019-02-09T21:39:18.490Z,1.00
2019-02-09T21:41:49.934Z,1.50
2019-02-09T21:44:21.371Z,1.03
2019-02-09T21:46:53.290Z,1.10
2019-02-09T21:49:24.852Z,0.80
2019-02-09T21:51:56.368Z,1.00
2019-02-09T21:54:27.874Z,0.90
2019-02-09T21:56:59.249Z,1.27
2019-02-09T21:59:30.679Z,1.13
2019-02-09T22:02:02.117Z,1.27
2019-02-09T22:04:33.629Z,1.00
2019-02-09T22:07:05.101Z,1.33
2019-02-09T22:09:36.503Z,1.33
2019-02-09T22:12:08.074Z,1.43
2019-02-09T22:14:39.689Z,1.17
2019-02-09T22:17:11.360Z,0.90
2019-02-09T22:19:42.858Z,1.10
2019-02-09T22:22:14.315Z,1.30
2019-02-09T22:24:45.785Z,1.20
2019-02-09T22:27:17.218Z,1.80
2019-02-09T22:29:50.409Z,1.50
2019-02-09T22:32:21.836Z,1.50
2019-02-09T22:34:53.262Z,1.47
2019-02-09T22:37:27.911Z,1.83
2019-02-09T22:39:59.401Z,1.50
2019-02-09T22:42:30.898Z,1.40
2019-02-09T22:45:03.924Z,1.57
2019-02-09T22:47:36.099Z,1.30
2019-02-09T22:50:18.951Z,1.43
2019-02-09T22:52:46.637Z,2.10
2019-02-09T22:55:18.662Z,2.30
2019-02-09T22:57:50.517Z,2.00
2019-02-09T23:00:55.463Z,3.00
2019-02-09T23:03:55.642Z,2.40
2019-02-09T23:06:57.132Z,1.83
2019-02-09T23:09:31.103Z,1.80
2019-02-09T23:12:02.514Z,2.63
2019-02-09T23:14:34.010Z,2.83
2019-02-09T23:17:05.368Z,3.30
2019-02-09T23:19:36.766Z,3.97
2019-02-09T23:22:08.187Z,2.53
2019-02-09T23:24:39.621Z,2.63
2019-02-09T23:27:11.058Z,3.60
2019-02-09T23:29:42.552Z,2.73
2019-02-09T23:32:14.007Z,3.60
2019-02-09T23:34:45.463Z,3.30
2019-02-09T23:37:16.810Z,3.33
2019-02-09T23:39:48.240Z,3.70
2019-02-09T23:42:19.730Z,3.77
2019-02-09T23:44:51.131Z,4.60
2019-02-09T23:47:22.549Z,4.37
2019-02-09T23:49:54.547Z,4.00
2019-02-09T23:52:26.098Z,3.40
2019-02-09T23:54:57.549Z,3.80
2019-02-09T23:57:28.985Z,3.43
